Gill, Massachusetts
Current Conditions -  °F | °C
As of 9:09 AM on Thursday 30 Oct 2014 (Local Time) from KORE Reporting Station
Moderate Fog Moderate Fog  
Wind Chill: 36°   Ceiling: 200
Heat Index: 36°   Visibility: 0.25mi
Dew Point: 36°   Wind: 0mph
Humidity: 100%   Direction: NA
Pressure: 29.96"   Gusts: NA
Location:  42.6787°N, 72.4874°W
Report Text: KORE 301309Z AUTO 00000KT 1/4SM FG VV002 02/02 A2996 RMK AO2 T00220022
Loading
Personal Weather Stations






























Interactive Weather Map
Tropical Storm Tracking
New forecast layout! Learn more

10-Day Weather Forecast

Advertisements
Track Severe Weather on mobile